createdAt,value
2022-09-11T00:09:24.023Z,58.60
2022-09-11T00:19:57.814Z,56.90
2022-09-11T00:30:15.446Z,56.60
2022-09-11T00:41:13.788Z,55.20
2022-09-11T01:03:35.823Z,55.40
2022-09-11T01:13:49.435Z,59.10
2022-09-11T01:24:10.727Z,61.10
2022-09-11T01:34:26.410Z,63.50
2022-09-11T01:44:38.709Z,65.30
2022-09-11T01:55:00.032Z,67.30
2022-09-11T02:05:13.566Z,69.30
2022-09-11T02:15:29.374Z,71.30
2022-09-11T02:25:39.003Z,73.50
2022-09-11T02:35:52.648Z,75.50
2022-09-11T02:46:15.367Z,77.20
2022-09-11T02:56:31.560Z,78.70
2022-09-11T03:18:17.409Z,80.80
2022-09-11T03:28:53.941Z,82.30
2022-09-11T03:51:56.096Z,82.10
2022-09-11T04:03:06.696Z,80.40
2022-09-11T04:38:42.063Z,75.80
2022-09-11T04:49:00.269Z,75.10
2022-09-11T04:59:42.402Z,73.30
2022-09-11T05:09:55.540Z,72.40
2022-09-11T05:20:02.670Z,72.20
2022-09-11T05:30:14.919Z,72.10
2022-09-11T05:40:23.776Z,72.70
2022-09-11T05:50:34.408Z,73.40
2022-09-11T06:00:42.800Z,74.00
2022-09-11T06:10:55.850Z,74.40
2022-09-11T06:21:04.988Z,75.10
2022-09-11T06:31:23.243Z,75.40
2022-09-11T06:41:35.511Z,86.00
2022-09-11T06:51:53.132Z,90.50
2022-09-11T07:02:01.953Z,90.50
2022-09-11T07:12:12.397Z,90.50
2022-09-11T07:22:23.175Z,90.70
2022-09-11T07:32:33.707Z,90.80
2022-09-11T07:42:41.389Z,90.80
2022-09-11T07:52:53.395Z,91.00
2022-09-11T08:03:01.961Z,91.00
2022-09-11T08:13:15.728Z,91.10
2022-09-11T08:23:26.169Z,91.10
2022-09-11T08:33:42.926Z,91.50
2022-09-11T08:44:02.710Z,91.20
2022-09-11T08:54:25.001Z,91.60
2022-09-11T09:05:12.538Z,91.20
2022-09-11T09:15:36.121Z,91.30
2022-09-11T09:25:46.368Z,91.10
2022-09-11T09:35:56.283Z,91.30
2022-09-11T09:46:26.054Z,91.60
2022-09-11T09:56:57.155Z,91.50
2022-09-11T10:07:15.738Z,91.60
2022-09-11T10:17:57.212Z,91.70
2022-09-11T10:28:14.947Z,91.90
2022-09-11T10:38:53.157Z,91.90
2022-09-11T10:49:03.013Z,91.90
2022-09-11T10:59:20.116Z,92.20
2022-09-11T11:09:45.581Z,92.00
2022-09-11T11:20:15.371Z,92.10
2022-09-11T11:30:25.099Z,92.10
2022-09-11T11:40:39.862Z,92.30
2022-09-11T11:50:54.315Z,92.20
2022-09-11T12:01:07.556Z,92.20
2022-09-11T12:11:25.030Z,92.20
2022-09-11T12:21:45.802Z,92.50
2022-09-11T12:32:30.219Z,92.20
2022-09-11T12:43:01.422Z,92.40
2022-09-11T12:53:20.728Z,92.30
2022-09-11T13:03:33.960Z,92.30
2022-09-11T13:13:48.052Z,92.40
2022-09-11T13:24:24.190Z,92.50
2022-09-11T13:34:32.731Z,92.60
2022-09-11T13:44:45.493Z,92.60
2022-09-11T14:06:20.757Z,92.50
2022-09-11T14:16:34.361Z,92.60
2022-09-11T14:26:46.419Z,92.50
2022-09-11T14:36:58.894Z,92.30
2022-09-11T14:47:11.533Z,92.70
2022-09-11T14:57:32.452Z,93.00
2022-09-11T15:07:52.346Z,93.00
2022-09-11T15:18:14.156Z,93.20
2022-09-11T15:28:37.238Z,93.20
2022-09-11T15:38:47.390Z,93.20
2022-09-11T15:48:56.544Z,93.10
2022-09-11T15:59:04.204Z,93.30
2022-09-11T16:09:16.445Z,93.00
2022-09-11T16:19:24.885Z,93.30
2022-09-11T16:29:56.590Z,92.30
2022-09-11T16:40:01.023Z,91.50
2022-09-11T16:50:10.426Z,91.00
2022-09-11T17:00:18.249Z,90.90
2022-09-11T17:10:27.608Z,95.30
2022-09-11T17:20:37.440Z,99.60
2022-09-11T17:30:46.606Z,99.90
2022-09-11T17:40:54.242Z,99.90
2022-09-11T17:51:08.435Z,99.90
2022-09-11T18:01:23.984Z,99.90
2022-09-11T18:11:43.475Z,99.90
2022-09-11T18:21:59.877Z,98.00
2022-09-11T18:33:13.087Z,95.80
2022-09-11T18:43:44.898Z,92.40
2022-09-11T19:16:00.363Z,82.70
2022-09-11T19:26:19.371Z,75.70
2022-09-11T19:36:34.739Z,73.70
2022-09-11T19:46:48.357Z,72.10
2022-09-11T19:57:00.236Z,70.80
2022-09-11T20:07:13.864Z,69.40
2022-09-11T20:17:32.728Z,69.00
2022-09-11T20:27:40.989Z,68.10
2022-09-11T20:38:00.471Z,67.20
2022-09-11T20:48:19.914Z,65.90
2022-09-11T20:58:35.619Z,65.30
2022-09-11T21:08:44.513Z,66.20
2022-09-11T21:18:57.831Z,66.60
2022-09-11T21:29:07.959Z,64.60
2022-09-11T21:39:22.112Z,63.40
2022-09-11T21:49:34.274Z,64.80
2022-09-11T21:59:45.686Z,64.40
2022-09-11T22:09:53.468Z,63.60
2022-09-11T22:20:08.712Z,62.10
2022-09-11T22:30:17.296Z,61.60
2022-09-11T22:40:26.535Z,61.40
2022-09-11T22:50:37.613Z,61.00
2022-09-11T23:00:49.923Z,60.90
2022-09-11T23:11:12.073Z,61.50
2022-09-11T23:21:29.483Z,63.70
2022-09-11T23:31:55.628Z,64.10
2022-09-11T23:42:11.328Z,64.30
2022-09-11T23:52:55.571Z,63.30
